createdAt,value
2022-12-16T00:01:50.207Z,51.30
2022-12-16T00:07:14.233Z,50.88
2022-12-16T00:12:36.512Z,47.67
2022-12-16T00:17:59.249Z,49.65
2022-12-16T00:23:21.860Z,52.93
2022-12-16T00:28:47.368Z,49.33
2022-12-16T00:34:10.523Z,50.35
2022-12-16T00:39:32.895Z,52.67
2022-12-16T00:44:55.105Z,52.50
2022-12-16T00:50:17.667Z,49.90
2022-12-16T00:55:39.890Z,51.92
2022-12-16T01:01:03.860Z,57.83
2022-12-16T01:06:28.979Z,55.85
2022-12-16T01:11:51.346Z,54.83
2022-12-16T01:17:14.280Z,55.28
2022-12-16T01:22:38.198Z,55.23
2022-12-16T01:28:00.400Z,56.68
2022-12-16T01:33:23.355Z,57.20
2022-12-16T01:38:48.015Z,57.23
2022-12-16T01:44:29.976Z,55.78
2022-12-16T01:50:18.051Z,55.67
2022-12-16T01:55:55.623Z,56.00
2022-12-16T02:01:19.204Z,53.13
2022-12-16T02:06:42.646Z,55.15
2022-12-16T02:12:18.247Z,50.90
2022-12-16T02:17:53.783Z,52.62
2022-12-16T02:23:41.637Z,53.95
2022-12-16T02:29:43.225Z,53.25
2022-12-16T02:35:31.115Z,51.20
2022-12-16T02:41:17.092Z,51.53
2022-12-16T02:46:46.419Z,52.53
2022-12-16T02:52:10.477Z,51.37
2022-12-16T02:57:56.579Z,53.17
2022-12-16T03:03:29.854Z,51.60
2022-12-16T03:08:57.926Z,51.90
2022-12-16T03:14:23.329Z,50.23
2022-12-16T03:19:48.530Z,51.83
2022-12-16T03:25:12.545Z,52.17
2022-12-16T03:30:40.363Z,51.18
2022-12-16T03:36:06.785Z,50.73
2022-12-16T03:41:30.586Z,49.80
2022-12-16T03:46:53.436Z,51.33
2022-12-16T03:52:15.970Z,48.33
2022-12-16T03:57:38.625Z,50.50
2022-12-16T04:03:01.501Z,46.80
2022-12-16T04:08:24.083Z,47.88
2022-12-16T04:14:04.395Z,47.95
2022-12-16T04:19:49.451Z,49.45
2022-12-16T04:25:24.961Z,49.45
2022-12-16T04:30:48.386Z,48.45
2022-12-16T04:36:19.066Z,47.70
2022-12-16T04:42:29.455Z,48.23
2022-12-16T04:48:09.410Z,47.53
2022-12-16T04:53:50.024Z,50.13
2022-12-16T04:59:30.491Z,48.37
2022-12-16T05:05:10.571Z,48.07
2022-12-16T05:10:51.154Z,47.73
2022-12-16T05:16:31.883Z,48.47
2022-12-16T05:22:11.914Z,49.43
2022-12-16T05:27:52.148Z,48.00
2022-12-16T05:33:32.367Z,50.37
2022-12-16T05:39:12.485Z,48.87
2022-12-16T05:44:52.655Z,50.13
2022-12-16T05:50:33.099Z,47.23
2022-12-16T05:56:14.314Z,48.65
2022-12-16T06:01:54.397Z,50.30
2022-12-16T06:07:34.803Z,49.00
2022-12-16T06:13:17.100Z,52.97
2022-12-16T06:18:56.880Z,54.73
2022-12-16T06:24:37.799Z,52.27
2022-12-16T06:30:18.008Z,52.08
2022-12-16T06:35:57.930Z,52.53
2022-12-16T06:41:38.183Z,52.83
2022-12-16T06:47:18.664Z,55.70
2022-12-16T06:52:58.542Z,53.05
2022-12-16T06:58:38.752Z,55.37
2022-12-16T07:04:18.955Z,54.67
2022-12-16T07:09:58.872Z,56.53
2022-12-16T07:15:39.003Z,55.38
2022-12-16T07:21:18.859Z,54.70
2022-12-16T07:26:59.212Z,53.75
2022-12-16T07:32:39.954Z,54.97
2022-12-16T07:38:20.783Z,56.60
2022-12-16T07:44:00.740Z,57.48
2022-12-16T07:55:25.588Z,62.93
2022-12-16T08:01:09.881Z,54.93
2022-12-16T08:06:53.238Z,56.07
2022-12-16T08:12:35.669Z,57.77
2022-12-16T08:18:21.731Z,56.60
2022-12-16T08:24:01.997Z,61.10
2022-12-16T08:29:45.393Z,61.03
2022-12-16T08:35:25.723Z,59.20
2022-12-16T08:41:08.051Z,59.20
2022-12-16T08:46:49.625Z,58.60
2022-12-16T08:52:30.434Z,58.73
2022-12-16T08:58:18.518Z,62.25
2022-12-16T09:04:01.492Z,60.17
2022-12-16T09:09:42.053Z,61.55
2022-12-16T09:15:24.603Z,59.63
2022-12-16T09:21:07.706Z,61.20
2022-12-16T09:26:50.586Z,62.07
2022-12-16T09:32:31.008Z,64.33
2022-12-16T09:38:14.285Z,61.05
2022-12-16T09:44:20.681Z,63.33
2022-12-16T09:50:15.778Z,63.42
2022-12-16T09:56:06.976Z,62.87
2022-12-16T10:01:51.869Z,64.17
2022-12-16T10:07:44.010Z,61.83
2022-12-16T10:13:39.574Z,67.53
2022-12-16T10:19:46.747Z,64.55
2022-12-16T10:25:38.531Z,63.10
2022-12-16T10:31:26.744Z,65.28
2022-12-16T10:37:12.301Z,66.80
2022-12-16T10:42:59.754Z,63.73
2022-12-16T10:48:50.235Z,61.40
2022-12-16T10:54:48.856Z,61.60
2022-12-16T11:00:41.454Z,65.97
2022-12-16T11:06:24.968Z,61.70
2022-12-16T11:12:09.123Z,64.87
2022-12-16T11:18:03.466Z,63.73
2022-12-16T11:24:02.755Z,78.37
2022-12-16T11:29:46.588Z,64.23
2022-12-16T11:35:30.579Z,62.87
2022-12-16T11:41:10.746Z,65.80
2022-12-16T11:46:58.327Z,64.50
2022-12-16T11:52:45.297Z,64.43
2022-12-16T11:58:50.248Z,63.33
2022-12-16T12:04:29.408Z,64.53
2022-12-16T12:10:37.304Z,63.93
2022-12-16T12:16:22.530Z,60.10
2022-12-16T12:22:11.741Z,69.00
2022-12-16T12:27:59.193Z,69.58
2022-12-16T12:34:03.479Z,73.13
2022-12-16T12:39:51.536Z,72.57
2022-12-16T12:45:54.794Z,67.57
2022-12-16T12:51:58.426Z,66.07
2022-12-16T12:57:43.617Z,61.20
2022-12-16T13:03:44.249Z,62.00
2022-12-16T13:15:14.484Z,59.97
2022-12-16T13:21:12.248Z,56.83
2022-12-16T13:26:58.806Z,57.53
2022-12-16T13:32:54.523Z,57.70
2022-12-16T13:38:51.686Z,61.13
2022-12-16T13:44:38.046Z,59.70
2022-12-16T13:50:32.065Z,60.20
2022-12-16T13:56:25.249Z,57.23
2022-12-16T14:02:29.457Z,56.33
2022-12-16T14:08:14.143Z,55.43
2022-12-16T14:20:41.036Z,60.43
2022-12-16T14:26:24.221Z,61.60
2022-12-16T14:32:08.870Z,58.90
2022-12-16T14:38:00.029Z,79.43
2022-12-16T14:43:50.180Z,59.53
2022-12-16T14:49:34.404Z,58.43
2022-12-16T14:55:18.425Z,61.87
2022-12-16T15:01:02.391Z,61.63
2022-12-16T15:06:55.121Z,61.03
2022-12-16T15:12:37.689Z,57.43
2022-12-16T15:18:28.974Z,56.97
2022-12-16T15:24:13.665Z,56.70
2022-12-16T15:30:06.625Z,55.23
2022-12-16T15:36:05.932Z,57.40
2022-12-16T15:42:09.473Z,57.20
2022-12-16T15:48:04.400Z,50.98
2022-12-16T15:54:05.555Z,53.42
2022-12-16T16:00:03.960Z,53.55
2022-12-16T16:05:50.156Z,54.73
2022-12-16T16:11:30.300Z,53.83
2022-12-16T16:17:10.115Z,55.30
2022-12-16T16:22:52.290Z,56.25
2022-12-16T16:28:32.945Z,55.30
2022-12-16T16:34:12.992Z,55.80
2022-12-16T16:39:52.798Z,53.17
2022-12-16T16:45:35.019Z,54.55
2022-12-16T16:51:15.059Z,52.60
2022-12-16T16:56:55.919Z,55.97
2022-12-16T17:02:41.451Z,51.28
2022-12-16T17:08:21.115Z,53.60
2022-12-16T17:14:00.915Z,54.03
2022-12-16T17:19:40.830Z,51.53
2022-12-16T17:25:21.015Z,54.07
2022-12-16T17:31:01.323Z,53.92
2022-12-16T17:36:42.472Z,54.10
2022-12-16T17:42:22.470Z,55.08
2022-12-16T17:48:02.758Z,55.23
2022-12-16T17:53:43.005Z,56.13
2022-12-16T17:59:23.283Z,57.50
2022-12-16T18:05:03.207Z,53.85
2022-12-16T18:10:43.797Z,50.88
2022-12-16T18:16:30.152Z,53.70
2022-12-16T18:22:10.382Z,49.70
2022-12-16T18:27:50.398Z,46.13
2022-12-16T18:33:30.720Z,66.97
2022-12-16T18:39:10.778Z,46.00
2022-12-16T18:44:53.816Z,47.20
2022-12-16T18:50:37.781Z,48.25
2022-12-16T18:56:26.246Z,48.30
2022-12-16T19:02:06.280Z,50.03
2022-12-16T19:07:47.962Z,48.17
2022-12-16T19:13:30.351Z,46.93
2022-12-16T19:19:12.752Z,45.35
2022-12-16T19:24:52.145Z,45.70
2022-12-16T19:30:32.943Z,47.80
2022-12-16T19:36:13.043Z,44.80
2022-12-16T19:41:56.195Z,42.50
2022-12-16T19:47:35.578Z,43.98
2022-12-16T19:53:15.605Z,42.87
2022-12-16T19:58:56.915Z,42.27
2022-12-16T20:04:37.112Z,37.87
2022-12-16T20:10:07.045Z,38.70
2022-12-16T20:15:57.110Z,40.40
2022-12-16T20:21:38.853Z,37.80
2022-12-16T20:27:18.749Z,38.83
2022-12-16T20:32:58.934Z,38.27
2022-12-16T20:38:39.216Z,38.80
2022-12-16T20:44:22.242Z,36.27
2022-12-16T20:50:03.301Z,35.37
2022-12-16T20:55:43.595Z,35.53
2022-12-16T21:01:25.849Z,32.77
2022-12-16T21:07:06.297Z,32.17
2022-12-16T21:12:46.325Z,29.43
2022-12-16T21:18:27.855Z,33.80
2022-12-16T21:24:08.046Z,30.77
2022-12-16T21:29:49.105Z,31.13
2022-12-16T21:35:29.229Z,31.03
2022-12-16T21:41:11.158Z,30.77
2022-12-16T21:46:51.845Z,29.90
2022-12-16T21:52:31.733Z,29.83
2022-12-16T21:58:13.376Z,30.03
2022-12-16T22:03:59.498Z,30.13
2022-12-16T22:09:39.726Z,30.85
2022-12-16T22:15:20.049Z,28.87
2022-12-16T22:20:59.866Z,31.50
2022-12-16T22:26:40.703Z,25.30
2022-12-16T22:32:21.196Z,28.33
2022-12-16T22:38:01.688Z,29.65
2022-12-16T22:43:42.003Z,29.53
2022-12-16T22:49:25.188Z,29.77
2022-12-16T22:55:05.081Z,29.23
2022-12-16T23:00:46.986Z,25.87
2022-12-16T23:06:27.005Z,25.80
2022-12-16T23:12:12.364Z,24.43
2022-12-16T23:17:52.236Z,26.30
2022-12-16T23:23:32.938Z,25.27
2022-12-16T23:29:15.247Z,25.40
2022-12-16T23:34:54.937Z,23.77
2022-12-16T23:40:36.036Z,25.00
2022-12-16T23:46:15.989Z,21.47
2022-12-16T23:51:55.987Z,24.27
2022-12-16T23:57:37.573Z,26.10
